createdAt,value
2022-10-18T00:00:19.261Z,101153.22
2022-10-18T00:01:07.257Z,101149.69
2022-10-18T00:01:54.604Z,101148.84
2022-10-18T00:02:41.450Z,101161.47
2022-10-18T00:03:28.232Z,101148.00
2022-10-18T00:04:15.031Z,101153.41
2022-10-18T00:05:01.926Z,101150.12
2022-10-18T00:05:49.825Z,101147.28
2022-10-18T00:06:39.853Z,101152.37
2022-10-18T00:07:29.727Z,101147.69
2022-10-18T00:08:17.721Z,101143.44
2022-10-18T00:09:04.790Z,101155.03
2022-10-18T00:09:51.593Z,101143.00
2022-10-18T00:10:38.491Z,101155.59
2022-10-18T00:11:25.361Z,101148.97
2022-10-18T00:12:12.143Z,101151.91
2022-10-18T00:12:59.021Z,101150.78
2022-10-18T00:13:45.781Z,101154.72
2022-10-18T00:14:32.559Z,101149.34
2022-10-18T00:15:19.608Z,101152.91
2022-10-18T00:16:11.995Z,101143.13
2022-10-18T00:16:58.787Z,101147.66
2022-10-18T00:17:45.691Z,101147.25
2022-10-18T00:18:32.473Z,101142.88
2022-10-18T00:19:19.191Z,101146.94
2022-10-18T00:20:06.843Z,101151.59
2022-10-18T00:21:03.928Z,101141.44
2022-10-18T00:21:51.451Z,101140.84
2022-10-18T00:22:39.904Z,101141.97
2022-10-18T00:23:27.622Z,101139.41
2022-10-18T00:24:14.471Z,101144.12
2022-10-18T00:25:01.228Z,101136.19
2022-10-18T00:25:48.007Z,101134.22
2022-10-18T00:26:34.781Z,101144.38
2022-10-18T00:27:21.630Z,101138.87
2022-10-18T00:28:08.382Z,101134.03
2022-10-18T00:28:58.007Z,101132.78
2022-10-18T00:29:44.991Z,101127.53
2022-10-18T00:30:31.719Z,101131.06
2022-10-18T00:31:20.098Z,101137.56
2022-10-18T00:32:06.998Z,101125.97
2022-10-18T00:32:53.778Z,101123.69
2022-10-18T00:33:41.101Z,101130.75
2022-10-18T00:34:27.931Z,101126.50
2022-10-18T00:35:14.753Z,101124.53
2022-10-18T00:36:01.503Z,101128.78
2022-10-18T00:36:48.323Z,101128.53
2022-10-18T00:37:36.031Z,101125.37
2022-10-18T00:38:22.808Z,101122.56
2022-10-18T00:39:16.791Z,101122.56
2022-10-18T00:40:04.223Z,101123.41
2022-10-18T00:40:51.022Z,101126.25
2022-10-18T00:41:38.402Z,101119.28
2022-10-18T00:42:29.809Z,101113.06
2022-10-18T00:43:18.612Z,101121.84
2022-10-18T00:44:27.097Z,101115.88
2022-10-18T00:45:21.525Z,101118.44
2022-10-18T00:46:08.270Z,101113.34
2022-10-18T00:47:09.442Z,101110.19
2022-10-18T00:48:01.142Z,101108.09
2022-10-18T00:48:48.608Z,101105.41
2022-10-18T00:49:42.265Z,101106.41
2022-10-18T00:50:31.551Z,101099.91
2022-10-18T00:51:20.298Z,101111.50
2022-10-18T00:52:29.718Z,101105.53
2022-10-18T00:55:20.920Z,101099.19
2022-10-18T00:56:08.182Z,101101.03
2022-10-18T00:56:55.270Z,101101.72
2022-10-18T00:57:43.820Z,101103.56
2022-10-18T00:58:30.831Z,101097.87
2022-10-18T00:59:18.781Z,101097.16
2022-10-18T01:00:10.095Z,101097.87
2022-10-18T01:00:57.211Z,101097.28
2022-10-18T01:01:45.227Z,101094.75
2022-10-18T01:02:32.926Z,101099.25
2022-10-18T01:03:20.081Z,101095.72
2022-10-18T01:04:06.969Z,101098.69
2022-10-18T01:04:53.861Z,101095.88
2022-10-18T01:05:45.279Z,101098.00
2022-10-18T01:06:33.171Z,101095.47
2022-10-18T01:07:25.874Z,101092.91
2022-10-18T01:08:44.490Z,101094.59
2022-10-18T01:09:47.599Z,101090.22
2022-10-18T01:10:40.379Z,101094.28
2022-10-18T01:11:42.250Z,101092.72
2022-10-18T01:12:29.070Z,101092.59
2022-10-18T01:13:23.423Z,101088.06
2022-10-18T01:14:42.609Z,101089.91
2022-10-18T01:15:39.613Z,101086.09
2022-10-18T01:16:54.379Z,101084.41
2022-10-18T01:18:12.880Z,101084.41
2022-10-18T01:19:38.433Z,101087.66
2022-10-18T01:20:46.912Z,101084.78
2022-10-18T01:21:48.860Z,101078.56
2022-10-18T01:22:44.330Z,101074.44
2022-10-18T01:23:52.740Z,101085.06
2022-10-18T01:24:55.505Z,101072.28
2022-10-18T01:25:46.889Z,101068.34
2022-10-18T01:26:58.461Z,101074.00
2022-10-18T01:28:03.839Z,101077.97
2022-10-18T01:29:18.382Z,101081.94
2022-10-18T01:30:43.791Z,101071.31
2022-10-18T01:31:35.450Z,101069.47
2022-10-18T01:32:26.911Z,101067.06
2022-10-18T01:33:32.724Z,101066.06
2022-10-18T01:34:20.260Z,101060.56
2022-10-18T01:35:12.481Z,101061.00
2022-10-18T01:36:06.371Z,101070.13
2022-10-18T01:36:54.931Z,101071.13
2022-10-18T01:37:42.500Z,101065.69
2022-10-18T01:38:31.861Z,101065.19
2022-10-18T01:39:25.102Z,101066.56
2022-10-18T01:40:13.230Z,101066.56
2022-10-18T01:41:01.398Z,101062.06
2022-10-18T01:41:48.991Z,101067.66
2022-10-18T01:42:35.803Z,101064.13
2022-10-18T01:43:23.840Z,101061.78
2022-10-18T01:44:16.546Z,101062.91
2022-10-18T01:45:04.490Z,101063.91
2022-10-18T01:45:54.111Z,101064.53
2022-10-18T01:46:41.995Z,101063.56
2022-10-18T01:47:29.426Z,101061.97
2022-10-18T01:48:17.138Z,101061.97
2022-10-18T01:49:04.600Z,101058.78
2022-10-18T01:50:00.460Z,101057.09
2022-10-18T01:50:47.379Z,101058.34
2022-10-18T01:51:34.315Z,101057.34
2022-10-18T01:52:21.210Z,101061.97
2022-10-18T01:53:25.190Z,101051.41
2022-10-18T01:54:14.739Z,101052.47
2022-10-18T01:55:02.961Z,101058.44
2022-10-18T01:55:58.580Z,101053.78
2022-10-18T01:57:05.651Z,101054.53
2022-10-18T01:58:07.450Z,101059.28
2022-10-18T01:59:25.139Z,101062.25
2022-10-18T02:00:28.829Z,101057.50
2022-10-18T02:01:26.442Z,101060.41
2022-10-18T02:02:43.819Z,101057.00
2022-10-18T02:03:30.809Z,101058.53
2022-10-18T02:04:27.372Z,101056.28
2022-10-18T02:05:29.120Z,101057.72
2022-10-18T02:06:23.130Z,101054.78
2022-10-18T02:07:20.822Z,101053.91
2022-10-18T02:08:26.791Z,101056.38
2022-10-18T02:09:32.230Z,101051.63
2022-10-18T02:10:24.842Z,101052.62
2022-10-18T02:11:16.552Z,101049.47
2022-10-18T02:12:04.030Z,101051.03
2022-10-18T02:12:52.420Z,101052.34
2022-10-18T02:13:52.239Z,101047.84
2022-10-18T02:14:40.251Z,101052.84
2022-10-18T02:15:31.510Z,101053.09
2022-10-18T02:16:24.011Z,101055.03
2022-10-18T02:17:12.652Z,101051.25
2022-10-18T02:18:00.931Z,101053.78
2022-10-18T02:18:52.422Z,101054.78
2022-10-18T02:19:42.861Z,101052.34
2022-10-18T02:20:32.040Z,101057.28
2022-10-18T02:21:20.128Z,101061.53
2022-10-18T02:22:09.354Z,101057.28
2022-10-18T02:22:56.969Z,101051.41
2022-10-18T02:23:45.690Z,101057.13
2022-10-18T02:24:38.705Z,101054.59
2022-10-18T02:25:29.299Z,101055.56
2022-10-18T02:26:15.998Z,101054.72
2022-10-18T02:27:03.156Z,101057.53
2022-10-18T02:27:50.160Z,101054.84
2022-10-18T02:28:37.160Z,101056.25
2022-10-18T02:29:24.130Z,101052.94
2022-10-18T02:30:11.527Z,101059.91
2022-10-18T02:31:07.280Z,101053.91
2022-10-18T02:32:06.789Z,101057.94
2022-10-18T02:33:23.931Z,101054.91
2022-10-18T02:34:23.803Z,101065.53
2022-10-18T02:35:21.388Z,101061.13
2022-10-18T02:36:19.020Z,101056.34
2022-10-18T02:37:05.906Z,101055.03
2022-10-18T02:37:54.370Z,101054.91
2022-10-18T02:38:42.670Z,101055.62
2022-10-18T02:39:36.111Z,101063.69
2022-10-18T02:40:23.400Z,101060.00
2022-10-18T02:41:10.280Z,101059.03
2022-10-18T02:41:58.202Z,101061.72
2022-10-18T02:42:48.890Z,101057.22
2022-10-18T02:43:35.769Z,101062.69
2022-10-18T02:44:22.648Z,101057.09
2022-10-18T02:45:09.610Z,101058.06
2022-10-18T02:45:56.518Z,101058.78
2022-10-18T02:46:43.441Z,101055.38
2022-10-18T02:47:30.607Z,101058.06
2022-10-18T02:48:17.689Z,101055.91
2022-10-18T02:49:04.710Z,101061.13
2022-10-18T02:49:51.589Z,101054.19
2022-10-18T02:50:38.690Z,101062.12
2022-10-18T02:51:25.739Z,101057.59
2022-10-18T02:52:12.560Z,101057.59
2022-10-18T02:52:59.498Z,101062.34
2022-10-18T02:53:46.449Z,101062.84
2022-10-18T02:54:33.361Z,101056.09
2022-10-18T02:55:20.310Z,101056.09
2022-10-18T02:56:07.473Z,101059.16
2022-10-18T02:56:54.401Z,101063.44
2022-10-18T02:57:41.300Z,101061.63
2022-10-18T02:58:28.164Z,101060.16
2022-10-18T02:59:15.102Z,101053.78
2022-10-18T03:00:02.269Z,101062.47
2022-10-18T03:00:51.080Z,101056.25
2022-10-18T03:01:38.017Z,101063.31
2022-10-18T03:02:25.010Z,101059.50
2022-10-18T03:03:11.931Z,101064.03
2022-10-18T03:03:58.800Z,101060.75
2022-10-18T03:04:45.732Z,101061.97
2022-10-18T03:05:32.541Z,101066.75
2022-10-18T03:06:19.590Z,101065.03
2022-10-18T03:07:06.512Z,101057.00
2022-10-18T03:07:53.392Z,101062.25
2022-10-18T03:08:40.305Z,101066.25
2022-10-18T03:09:27.349Z,101056.47
2022-10-18T03:10:14.391Z,101064.66
2022-10-18T03:11:01.300Z,101060.87
2022-10-18T03:11:48.350Z,101063.44
2022-10-18T03:12:35.210Z,101053.41
2022-10-18T03:13:22.376Z,101062.47
2022-10-18T03:14:09.259Z,101058.78
2022-10-18T03:14:56.091Z,101061.34
2022-10-18T03:15:42.960Z,101057.22
2022-10-18T03:16:29.890Z,101061.47
2022-10-18T03:17:16.780Z,101053.78
2022-10-18T03:18:04.140Z,101056.09
2022-10-18T03:18:51.130Z,101058.66
2022-10-18T03:19:39.000Z,101062.59
2022-10-18T03:20:25.860Z,101059.56
2022-10-18T03:21:12.710Z,101062.75
2022-10-18T03:21:59.593Z,101055.53
2022-10-18T03:22:46.520Z,101063.69
2022-10-18T03:23:33.660Z,101059.16
2022-10-18T03:24:20.470Z,101062.59
2022-10-18T03:25:07.657Z,101064.66
2022-10-18T03:25:54.498Z,101051.38
2022-10-18T03:26:41.490Z,101054.06
2022-10-18T03:27:28.510Z,101051.09
2022-10-18T03:28:15.562Z,101055.38
2022-10-18T03:29:02.571Z,101061.72
2022-10-18T03:29:49.452Z,101054.53
2022-10-18T03:30:36.221Z,101057.72
2022-10-18T03:31:23.394Z,101056.03
2022-10-18T03:32:10.279Z,101053.72
2022-10-18T03:32:57.211Z,101050.66
2022-10-18T03:33:44.160Z,101058.00
2022-10-18T03:34:31.106Z,101061.78
2022-10-18T03:35:18.130Z,101062.12
2022-10-18T03:36:05.190Z,101054.63
2022-10-18T03:36:52.063Z,101054.91
2022-10-18T03:37:39.067Z,101058.19
2022-10-18T03:38:26.069Z,101055.25
2022-10-18T03:39:13.249Z,101050.13
2022-10-18T03:40:00.154Z,101054.63
2022-10-18T03:40:46.992Z,101052.94
2022-10-18T03:41:34.030Z,101053.59
2022-10-18T03:42:20.812Z,101051.06
2022-10-18T03:43:07.808Z,101058.00
2022-10-18T03:43:54.650Z,101053.22
2022-10-18T03:44:41.570Z,101054.78
2022-10-18T03:45:31.207Z,101045.16
2022-10-18T03:46:18.581Z,101054.31
2022-10-18T03:47:05.409Z,101053.84
2022-10-18T03:47:52.232Z,101053.72
2022-10-18T03:48:39.280Z,101053.53
2022-10-18T03:49:26.162Z,101050.72
2022-10-18T03:50:12.931Z,101053.25
2022-10-18T03:50:59.776Z,101049.72
2022-10-18T03:51:46.640Z,101053.97
2022-10-18T03:52:33.669Z,101050.06
2022-10-18T03:53:20.830Z,101046.66
2022-10-18T03:54:07.750Z,101054.81
2022-10-18T03:54:54.633Z,101060.19
2022-10-18T03:55:41.509Z,101053.00
2022-10-18T03:56:28.461Z,101053.25
2022-10-18T03:57:15.389Z,101061.06
2022-10-18T03:58:02.246Z,101052.00
2022-10-18T03:58:49.129Z,101043.84
2022-10-18T03:59:35.981Z,101054.69
2022-10-18T04:00:23.050Z,101050.19
2022-10-18T04:01:10.120Z,101051.56
2022-10-18T04:01:57.134Z,101047.88
2022-10-18T04:02:44.039Z,101049.72
2022-10-18T04:03:30.960Z,101048.72
2022-10-18T04:04:17.895Z,101048.16
2022-10-18T04:05:04.990Z,101054.50
2022-10-18T04:05:51.992Z,101044.47
2022-10-18T04:06:39.050Z,101047.31
2022-10-18T04:07:26.253Z,101049.66
2022-10-18T04:08:13.782Z,101040.03
2022-10-18T04:09:00.611Z,101045.28
2022-10-18T04:09:47.529Z,101049.41
2022-10-18T04:10:34.411Z,101046.13
2022-10-18T04:11:21.254Z,101045.78
2022-10-18T04:12:08.099Z,101043.63
2022-10-18T04:12:55.149Z,101047.53
2022-10-18T04:13:42.070Z,101046.56
2022-10-18T04:14:29.201Z,101043.56
2022-10-18T04:15:16.141Z,101036.81
2022-10-18T04:16:03.270Z,101042.19
2022-10-18T04:16:50.341Z,101034.13
2022-10-18T04:17:37.311Z,101036.34
2022-10-18T04:18:24.261Z,101035.00
2022-10-18T04:19:11.180Z,101034.41
2022-10-18T04:19:58.100Z,101037.19
2022-10-18T04:20:44.940Z,101039.16
2022-10-18T04:21:31.874Z,101038.19
2022-10-18T04:22:18.869Z,101031.84
2022-10-18T04:23:05.732Z,101039.16
2022-10-18T04:23:52.785Z,101039.75
2022-10-18T04:24:39.820Z,101030.47
2022-10-18T04:25:26.760Z,101029.75
2022-10-18T04:26:13.741Z,101034.00
2022-10-18T04:27:00.649Z,101036.56
2022-10-18T04:27:47.730Z,101036.09
2022-10-18T04:28:35.221Z,101032.16
2022-10-18T04:29:22.241Z,101032.75
2022-10-18T04:30:09.640Z,101031.59
2022-10-18T04:30:56.550Z,101037.31
2022-10-18T04:31:43.504Z,101032.94
2022-10-18T04:32:30.422Z,101032.94
2022-10-18T04:33:17.752Z,101033.06
2022-10-18T04:34:04.771Z,101030.50
2022-10-18T04:34:51.634Z,101029.66
2022-10-18T04:35:38.651Z,101034.47
2022-10-18T04:36:25.549Z,101037.88
2022-10-18T04:37:12.560Z,101035.31
2022-10-18T04:37:59.380Z,101034.47
2022-10-18T04:38:46.351Z,101035.41
2022-10-18T04:39:33.300Z,101032.84
2022-10-18T04:40:20.663Z,101039.34
2022-10-18T04:41:07.561Z,101039.22
2022-10-18T04:41:54.360Z,101037.88
2022-10-18T04:42:41.234Z,101037.16
2022-10-18T04:43:28.100Z,101038.28
2022-10-18T04:44:15.030Z,101035.72
2022-10-18T04:45:02.040Z,101034.63
2022-10-18T04:45:51.383Z,101029.25
2022-10-18T04:46:38.190Z,101035.22
2022-10-18T04:47:25.030Z,101025.19
2022-10-18T04:48:12.139Z,101022.06
2022-10-18T04:49:01.391Z,101022.31
2022-10-18T04:49:48.251Z,101024.75
2022-10-18T04:50:35.251Z,101020.69
2022-10-18T04:51:22.159Z,101026.75
2022-10-18T04:52:09.380Z,101024.97
2022-10-18T04:52:56.311Z,101026.53
2022-10-18T04:53:43.180Z,101027.66
2022-10-18T04:54:30.122Z,101028.16
2022-10-18T04:55:17.008Z,101024.34
2022-10-18T04:56:03.932Z,101026.31
2022-10-18T04:56:50.862Z,101023.63
2022-10-18T04:57:37.770Z,101029.00
2022-10-18T04:58:25.090Z,101025.94
2022-10-18T04:59:11.991Z,101023.50
2022-10-18T04:59:58.963Z,101017.81
2022-10-18T05:00:46.092Z,101025.72
2022-10-18T05:01:32.977Z,101024.03
2022-10-18T05:02:20.000Z,101025.31
2022-10-18T05:03:07.521Z,101024.47
2022-10-18T05:03:55.149Z,101017.44
2022-10-18T05:04:42.110Z,101018.66
2022-10-18T05:05:49.673Z,101013.41
2022-10-18T05:06:36.570Z,101021.34
2022-10-18T05:07:23.432Z,101019.78
2022-10-18T05:08:10.320Z,101015.12
2022-10-18T05:08:57.229Z,101019.00
2022-10-18T05:09:44.080Z,101014.88
2022-10-18T05:10:31.000Z,101021.06
2022-10-18T05:11:18.050Z,101016.69
2022-10-18T05:12:05.150Z,101016.31
2022-10-18T05:12:52.120Z,101013.75
2022-10-18T05:13:38.977Z,101020.22
2022-10-18T05:14:25.930Z,101009.22
2022-10-18T05:15:12.754Z,101011.22
2022-10-18T05:16:00.519Z,101009.50
2022-10-18T05:16:47.459Z,101014.47
2022-10-18T05:17:34.382Z,101006.91
2022-10-18T05:18:21.348Z,101009.84
2022-10-18T05:19:08.292Z,101001.91
2022-10-18T05:19:55.230Z,101004.34
2022-10-18T05:20:42.271Z,101008.72
2022-10-18T05:21:29.141Z,101001.28
2022-10-18T05:22:16.030Z,101008.09
2022-10-18T05:23:02.923Z,101005.53
2022-10-18T05:23:49.825Z,101006.37
2022-10-18T05:24:36.798Z,101008.94
2022-10-18T05:25:23.648Z,101010.75
2022-10-18T05:26:10.551Z,101009.66
2022-10-18T05:26:57.950Z,101006.50
2022-10-18T05:27:44.740Z,101005.78
2022-10-18T05:28:39.655Z,101007.75
2022-10-18T05:30:19.109Z,101015.41
2022-10-18T05:31:07.411Z,101011.38
2022-10-18T05:31:54.300Z,101012.94
2022-10-18T05:32:41.163Z,101009.66
2022-10-18T05:33:28.054Z,101005.84
2022-10-18T05:34:14.931Z,101006.13
2022-10-18T05:35:01.971Z,101007.09
2022-10-18T05:35:49.071Z,101006.25
2022-10-18T05:36:35.932Z,101008.09
2022-10-18T05:37:27.484Z,101002.31
2022-10-18T05:38:15.330Z,101006.06
2022-10-18T05:39:05.697Z,101006.37
2022-10-18T05:39:52.540Z,101005.97
2022-10-18T05:40:39.817Z,101013.06
2022-10-18T05:41:26.761Z,101016.06
2022-10-18T05:42:13.800Z,101014.38
2022-10-18T05:43:00.616Z,101011.53
2022-10-18T05:43:47.682Z,101008.88
2022-10-18T05:44:34.640Z,101013.37
2022-10-18T05:45:21.472Z,101014.62
2022-10-18T05:46:13.482Z,101018.88
2022-10-18T05:47:01.751Z,101017.63
2022-10-18T05:47:48.582Z,101014.09
2022-10-18T05:48:35.540Z,101015.22
2022-10-18T05:49:22.351Z,101026.72
2022-10-18T05:50:09.761Z,101023.19
2022-10-18T05:51:00.419Z,101015.03
2022-10-18T05:51:47.061Z,101018.16
2022-10-18T05:52:34.380Z,101023.69
2022-10-18T05:53:37.775Z,101025.09
2022-10-18T05:54:24.867Z,101020.34
2022-10-18T05:55:11.879Z,101020.59
2022-10-18T05:56:02.306Z,101020.59
2022-10-18T05:56:49.161Z,101024.66
2022-10-18T05:57:36.052Z,101024.53
2022-10-18T05:58:23.029Z,101025.66
2022-10-18T05:59:12.505Z,101022.25
2022-10-18T05:59:59.420Z,101026.38
2022-10-18T06:00:46.314Z,101022.25
2022-10-18T06:01:33.190Z,101026.50
2022-10-18T06:02:20.261Z,101019.87
2022-10-18T06:03:07.210Z,101020.94
2022-10-18T06:03:54.001Z,101026.44
2022-10-18T06:04:40.880Z,101025.59
2022-10-18T06:05:28.062Z,101021.06
2022-10-18T06:06:15.700Z,101026.03
2022-10-18T06:07:02.716Z,101033.25
2022-10-18T06:07:49.620Z,101025.19
2022-10-18T06:08:37.439Z,101023.22
2022-10-18T06:09:24.470Z,101033.25
2022-10-18T06:10:11.492Z,101023.22
2022-10-18T06:10:58.664Z,101033.84
2022-10-18T06:11:45.559Z,101034.41
2022-10-18T06:12:32.423Z,101033.44
2022-10-18T06:13:19.327Z,101036.13
2022-10-18T06:14:08.301Z,101031.06
2022-10-18T06:14:55.236Z,101034.47
2022-10-18T06:15:42.219Z,101037.88
2022-10-18T06:16:32.456Z,101030.25
2022-10-18T06:17:19.499Z,101035.50
2022-10-18T06:18:06.277Z,101031.56
2022-10-18T06:18:55.652Z,101032.88
2022-10-18T06:19:44.696Z,101028.34
2022-10-18T06:20:31.843Z,101030.19
2022-10-18T06:21:19.975Z,101028.62
2022-10-18T06:22:07.165Z,101028.62
2022-10-18T06:22:54.022Z,101026.78
2022-10-18T06:23:41.149Z,101029.22
2022-10-18T06:24:28.029Z,101021.88
2022-10-18T06:25:15.001Z,101028.69
2022-10-18T06:26:03.850Z,101026.44
2022-10-18T06:26:50.810Z,101025.03
2022-10-18T06:27:37.731Z,101027.31
2022-10-18T06:28:24.623Z,101026.19
2022-10-18T06:29:11.776Z,101021.50
2022-10-18T06:29:58.699Z,101018.41
2022-10-18T06:30:45.560Z,101022.66
2022-10-18T06:31:32.871Z,101019.13
2022-10-18T06:32:20.348Z,101021.53
2022-10-18T06:33:07.155Z,101025.78
2022-10-18T06:33:57.151Z,101018.88
2022-10-18T06:34:44.052Z,101020.00
2022-10-18T06:35:32.015Z,101017.16
2022-10-18T06:36:22.305Z,101025.81
2022-10-18T06:37:09.669Z,101020.31
2022-10-18T06:37:57.904Z,101020.59
2022-10-18T06:38:45.170Z,101026.69
2022-10-18T06:39:32.053Z,101023.69
2022-10-18T06:40:18.962Z,101018.03
2022-10-18T06:41:07.305Z,101027.53
2022-10-18T06:41:54.165Z,101025.28
2022-10-18T06:42:41.102Z,101026.69
2022-10-18T06:43:28.727Z,101021.84
2022-10-18T06:44:15.600Z,101016.63
2022-10-18T06:45:03.491Z,101024.72
2022-10-18T06:45:50.801Z,101019.87
2022-10-18T06:46:37.683Z,101015.78
2022-10-18T06:47:24.690Z,101018.88
2022-10-18T06:48:11.749Z,101017.75
2022-10-18T06:48:58.731Z,101013.63
2022-10-18T06:49:45.572Z,101019.44
2022-10-18T06:50:32.430Z,101020.69
2022-10-18T06:51:19.831Z,101021.13
2022-10-18T06:52:07.663Z,101016.00
2022-10-18T06:52:54.592Z,101016.28
2022-10-18T06:53:44.334Z,101019.69
2022-10-18T06:54:35.630Z,101021.38
2022-10-18T06:55:22.648Z,101020.66
2022-10-18T06:56:12.521Z,101018.53
2022-10-18T06:56:59.704Z,101023.31
2022-10-18T06:57:46.842Z,101015.19
2022-10-18T06:58:35.267Z,101021.84
2022-10-18T06:59:22.970Z,101021.41
2022-10-18T07:00:12.091Z,101022.50
2022-10-18T07:00:59.081Z,101020.41
2022-10-18T07:01:45.916Z,101018.09
2022-10-18T07:02:33.143Z,101022.88
2022-10-18T07:03:22.030Z,101025.84
2022-10-18T07:04:08.850Z,101020.69
2022-10-18T07:04:55.647Z,101025.34
2022-10-18T07:05:42.543Z,101030.13
2022-10-18T07:06:29.399Z,101017.72
2022-10-18T07:07:16.310Z,101021.22
2022-10-18T07:08:03.570Z,101017.84
2022-10-18T07:08:53.055Z,101020.00
2022-10-18T07:09:40.736Z,101023.09
2022-10-18T07:10:27.684Z,101017.13
2022-10-18T07:11:17.075Z,101016.41
2022-10-18T07:12:04.101Z,101021.56
2022-10-18T07:12:53.490Z,101007.03
2022-10-18T07:13:43.024Z,101020.91
2022-10-18T07:14:30.039Z,101015.88
2022-10-18T07:15:18.113Z,101015.81
2022-10-18T07:16:14.107Z,101015.75
2022-10-18T07:17:05.006Z,101012.91
2022-10-18T07:17:51.961Z,101012.44
2022-10-18T07:18:40.696Z,101020.03
2022-10-18T07:19:27.660Z,101010.88
2022-10-18T07:20:14.651Z,101011.09
2022-10-18T07:21:03.769Z,101014.50
2022-10-18T07:21:50.705Z,101013.22
2022-10-18T07:22:38.490Z,101008.31
2022-10-18T07:23:25.351Z,101008.81
2022-10-18T07:24:12.261Z,101009.69
2022-10-18T07:24:59.181Z,101004.97
2022-10-18T07:25:46.250Z,101003.28
2022-10-18T07:26:34.941Z,101000.75
2022-10-18T07:27:21.930Z,101001.62
2022-10-18T07:28:08.721Z,100995.56
2022-10-18T07:29:09.888Z,101000.13
2022-10-18T07:29:56.940Z,100994.03
2022-10-18T07:30:43.864Z,100991.84
2022-10-18T07:31:30.861Z,100998.28
2022-10-18T07:32:17.662Z,100996.25
2022-10-18T07:33:04.612Z,100990.97
2022-10-18T07:33:52.241Z,101005.06
2022-10-18T07:34:39.143Z,100993.88
2022-10-18T07:35:26.060Z,100989.97
2022-10-18T07:36:13.730Z,100990.81
2022-10-18T07:37:02.440Z,100992.50
2022-10-18T07:37:49.392Z,100996.22
2022-10-18T07:38:36.700Z,100989.78
2022-10-18T07:39:23.684Z,100988.06
2022-10-18T07:40:12.190Z,100997.53
2022-10-18T07:41:00.354Z,100991.38
2022-10-18T07:41:47.430Z,100992.50
2022-10-18T07:42:36.112Z,100989.97
2022-10-18T07:43:22.984Z,100995.06
2022-10-18T07:44:10.047Z,100996.72
2022-10-18T07:44:57.279Z,100994.00
2022-10-18T07:45:55.041Z,100996.22
2022-10-18T07:46:41.980Z,100999.75
2022-10-18T07:47:31.262Z,100991.50
2022-10-18T07:48:21.219Z,100996.59
2022-10-18T07:49:08.243Z,100991.62
2022-10-18T07:49:55.068Z,100991.12
2022-10-18T07:50:42.471Z,100987.34
2022-10-18T07:51:31.153Z,100991.12
2022-10-18T07:52:18.041Z,100986.47
2022-10-18T07:53:04.769Z,100990.09
2022-10-18T07:53:52.062Z,100982.91
2022-10-18T07:54:39.396Z,100984.69
2022-10-18T07:55:26.454Z,100985.81
2022-10-18T07:56:16.758Z,100996.13
2022-10-18T07:57:05.467Z,100983.16
2022-10-18T07:57:53.342Z,100980.34
2022-10-18T07:58:40.167Z,100986.47
2022-10-18T07:59:27.180Z,100979.63
2022-10-18T08:00:14.444Z,100980.28
2022-10-18T08:01:06.151Z,100974.84
2022-10-18T08:01:53.352Z,100975.87
2022-10-18T08:02:40.320Z,100975.87
2022-10-18T08:03:27.199Z,100975.69
2022-10-18T08:04:16.507Z,100974.47
2022-10-18T08:05:04.116Z,100977.59
2022-10-18T08:05:54.980Z,100976.19
2022-10-18T08:06:42.140Z,100970.38
2022-10-18T08:07:29.415Z,100965.78
2022-10-18T08:08:16.742Z,100969.63
2022-10-18T08:09:03.914Z,100965.00
2022-10-18T08:09:50.841Z,100964.94
2022-10-18T08:10:37.812Z,100973.56
2022-10-18T08:11:25.609Z,100974.88
2022-10-18T08:12:12.981Z,100970.53
2022-10-18T08:12:59.999Z,100970.66
2022-10-18T08:13:47.311Z,100967.81
2022-10-18T08:14:34.155Z,100967.47
2022-10-18T08:15:25.071Z,100972.16
2022-10-18T08:16:14.160Z,100972.41
2022-10-18T08:17:01.319Z,100959.59
2022-10-18T08:17:48.179Z,100969.06
2022-10-18T08:18:35.977Z,100969.06
2022-10-18T08:19:22.981Z,100967.66
2022-10-18T08:20:19.298Z,100974.88
2022-10-18T08:21:18.669Z,100967.59
2022-10-18T08:22:05.591Z,100968.13
2022-10-18T08:22:54.535Z,100966.88
2022-10-18T08:23:45.707Z,100974.47
2022-10-18T08:24:32.475Z,100976.34
2022-10-18T08:25:19.301Z,100972.63
2022-10-18T08:26:08.879Z,100971.44
2022-10-18T08:26:55.950Z,100968.13
2022-10-18T08:27:42.837Z,100966.28
2022-10-18T08:28:30.606Z,100966.75
2022-10-18T08:29:23.858Z,100970.53
2022-10-18T08:30:11.820Z,100974.06
2022-10-18T08:31:03.064Z,100971.22
2022-10-18T08:31:51.090Z,100968.72
2022-10-18T08:32:38.060Z,100969.37
2022-10-18T08:33:24.850Z,100971.75
2022-10-18T08:34:14.772Z,100970.06
2022-10-18T08:35:06.866Z,100971.53
2022-10-18T08:35:59.710Z,100966.72
2022-10-18T08:36:47.611Z,100960.94
2022-10-18T08:37:34.875Z,100969.16
2022-10-18T08:38:21.940Z,100968.09
2022-10-18T08:39:08.778Z,100975.66
2022-10-18T08:39:55.866Z,100967.53
2022-10-18T08:40:44.485Z,100970.09
2022-10-18T08:41:37.575Z,100969.25
2022-10-18T08:42:35.281Z,100973.22
2022-10-18T08:43:25.106Z,100966.31
2022-10-18T08:44:19.411Z,100960.69
2022-10-18T08:45:17.762Z,100963.22
2022-10-18T08:46:15.462Z,100970.59
2022-10-18T08:47:17.860Z,100962.69
2022-10-18T08:48:05.940Z,100962.87
2022-10-18T08:48:55.530Z,100954.25
2022-10-18T08:49:55.435Z,100962.72
2022-10-18T08:50:42.911Z,100949.91
2022-10-18T08:51:38.281Z,100958.38
2022-10-18T08:52:45.358Z,100956.19
2022-10-18T08:53:37.606Z,100951.81
2022-10-18T08:54:38.990Z,100942.19
2022-10-18T08:55:40.322Z,100950.81
2022-10-18T08:56:27.498Z,100947.22
2022-10-18T08:57:18.201Z,100947.03
2022-10-18T08:58:25.009Z,100949.78
2022-10-18T08:59:13.194Z,100942.03
2022-10-18T09:00:00.922Z,100954.06
2022-10-18T09:01:21.901Z,100951.34
2022-10-18T09:02:20.218Z,100938.53
2022-10-18T09:03:44.754Z,100948.59
2022-10-18T09:04:37.677Z,100939.41
2022-10-18T09:05:39.698Z,100940.66
2022-10-18T09:07:04.430Z,100938.56
2022-10-18T09:08:00.100Z,100938.56
2022-10-18T09:09:25.924Z,100936.47
2022-10-18T09:10:37.764Z,100935.84
2022-10-18T09:11:48.345Z,100940.94
2022-10-18T09:12:56.669Z,100932.94
2022-10-18T09:14:08.406Z,100929.38
2022-10-18T09:15:10.944Z,100927.50
2022-10-18T09:16:00.540Z,100931.47
2022-10-18T09:16:57.840Z,100928.97
2022-10-18T09:18:09.731Z,100928.13
2022-10-18T09:19:12.193Z,100929.16
2022-10-18T09:20:15.211Z,100931.69
2022-10-18T09:21:22.995Z,100925.37
2022-10-18T09:22:14.511Z,100920.56
2022-10-18T09:23:16.970Z,100925.81
2022-10-18T09:24:06.479Z,100917.16
2022-10-18T09:25:01.080Z,100912.13
2022-10-18T09:25:50.268Z,100918.63
2022-10-18T09:26:48.470Z,100918.63
2022-10-18T09:27:45.530Z,100912.75
2022-10-18T09:28:53.996Z,100917.16
2022-10-18T09:30:16.685Z,100915.50
2022-10-18T09:31:23.879Z,100915.06
2022-10-18T09:32:25.779Z,100905.59